CheckWX is a tool to help pilots better visualize weather data.  It is not intended as a substitute for an official pre-flight weather briefing.

17:07:15 UTC

KCNW METAR
Tstc Waco Airport
Waco, Texas, USA
Current

1 hour ago

KCNW 211555Z 20009KT 10SM SKC 30/21 A2999
Observed
Jul-21 @ 15:55 UTC
Wind
  • 200° at 9 KTS
Visibility
10 SM
Flight Rules
VFR
Cloud Levels
  • Clear skies
Temperature
30°C / 86°F
Dewpoint
21°C / 70°F
Heat Index
33°C / 91°F
Humidity
59%
Altimeter
29.99" Hg
Pressure
1015.62 hPa
Previous

2 hours ago

KCNW 211455Z 20009KT 10SM SKC 29/22 A2999
Observed
Jul-21 @ 14:55 UTC
Wind
  • 200° at 9 KTS
Visibility
10 SM
Flight Rules
VFR
Cloud Levels
  • Clear skies
Temperature
29°C / 84°F
Dewpoint
22°C / 72°F
Heat Index
32°C / 89°F
Humidity
66%
Altimeter
29.99" Hg
Pressure
1015.62 hPa
Previous

3 hours ago

KCNW 211355Z 20009KT 10SM SCT009 27/23 A2998
Observed
Jul-21 @ 13:55 UTC
Wind
  • 200° at 9 KTS
Visibility
10 SM
Flight Rules
VFR
Cloud Levels
  • Scattered at 900' AGL
Temperature
27°C / 81°F
Dewpoint
23°C / 73°F
Heat Index
30°C / 86°F
Humidity
79%
Altimeter
29.98" Hg
Pressure
1015.22 hPa